createdAt,value
2023-01-19T00:00:28.576Z,97336.00
2023-01-19T00:02:55.153Z,97341.00
2023-01-19T00:05:21.968Z,97346.00
2023-01-19T00:07:48.448Z,97351.00
2023-01-19T00:10:15.408Z,97347.00
2023-01-19T00:12:41.954Z,97352.00
2023-01-19T00:15:09.059Z,97357.00
2023-01-19T00:17:35.662Z,97358.00
2023-01-19T00:20:02.214Z,97363.00
2023-01-19T00:22:28.653Z,97365.00
2023-01-19T00:24:55.129Z,97373.00
2023-01-19T00:27:21.612Z,97367.00
2023-01-19T00:29:48.098Z,97373.00
2023-01-19T00:32:14.673Z,97376.00
2023-01-19T00:34:49.650Z,97376.00
2023-01-19T00:37:17.388Z,97375.00
2023-01-19T00:39:43.973Z,97362.00
2023-01-19T00:42:42.693Z,97375.00
2023-01-19T00:45:11.152Z,97378.00
2023-01-19T00:47:39.275Z,97380.00
2023-01-19T00:50:07.421Z,97375.00
2023-01-19T00:52:33.937Z,97380.00
2023-01-19T00:55:00.412Z,97388.00
2023-01-19T00:57:27.542Z,97385.00
2023-01-19T00:59:54.071Z,97376.00
2023-01-19T01:02:20.829Z,97382.00
2023-01-19T01:04:47.387Z,97386.00
2023-01-19T01:07:13.835Z,97390.00
2023-01-19T01:09:40.278Z,97386.00
2023-01-19T01:12:06.888Z,97399.00
2023-01-19T01:14:33.447Z,97390.00
2023-01-19T01:17:00.649Z,97385.00
2023-01-19T01:19:27.221Z,97395.00
2023-01-19T01:21:53.736Z,97390.00
2023-01-19T01:24:20.767Z,97390.00
2023-01-19T01:26:47.608Z,97388.00
2023-01-19T01:29:14.091Z,97391.00
2023-01-19T01:31:40.817Z,97391.00
2023-01-19T01:34:07.368Z,97396.00
2023-01-19T01:36:33.907Z,97399.00
2023-01-19T01:39:00.449Z,97401.00
2023-01-19T01:41:27.525Z,97408.00
2023-01-19T01:43:58.821Z,97403.00
2023-01-19T01:46:27.634Z,97404.00
2023-01-19T01:49:09.948Z,97404.00
2023-01-19T01:51:46.187Z,97395.00
2023-01-19T01:54:30.014Z,97400.00
2023-01-19T01:57:02.688Z,97403.00
2023-01-19T01:59:39.341Z,97408.00
2023-01-19T02:02:39.694Z,97408.00
2023-01-19T02:05:11.311Z,97405.00
2023-01-19T02:08:04.040Z,97404.00
2023-01-19T02:10:50.149Z,97415.00
2023-01-19T02:13:20.558Z,97421.00
2023-01-19T02:15:49.928Z,97421.00
2023-01-19T02:18:17.039Z,97424.00
2023-01-19T02:20:52.207Z,97424.00
2023-01-19T02:23:30.146Z,97429.00
2023-01-19T02:25:56.637Z,97423.00
2023-01-19T02:28:23.225Z,97420.00
2023-01-19T02:30:49.731Z,97423.00
2023-01-19T02:33:16.287Z,97415.00
2023-01-19T02:35:44.612Z,97413.00
2023-01-19T02:38:12.686Z,97415.00
2023-01-19T02:40:42.456Z,97412.00
2023-01-19T02:43:09.377Z,97421.00
2023-01-19T02:45:37.618Z,97418.00
2023-01-19T02:48:05.769Z,97421.00
2023-01-19T02:50:49.195Z,97423.00
2023-01-19T02:53:29.835Z,97420.00
2023-01-19T02:56:33.590Z,97416.00
2023-01-19T02:59:12.177Z,97410.00
2023-01-19T03:01:56.384Z,97417.00
2023-01-19T03:04:25.856Z,97406.00
2023-01-19T03:07:00.625Z,97399.00
2023-01-19T03:09:41.428Z,97400.00
2023-01-19T03:12:35.387Z,97401.00
2023-01-19T03:15:15.658Z,97397.00
2023-01-19T03:17:44.055Z,97405.00
2023-01-19T03:20:13.636Z,97403.00
2023-01-19T03:22:40.854Z,97396.00
2023-01-19T03:25:08.538Z,97398.00
2023-01-19T03:27:42.053Z,97398.00
2023-01-19T03:30:13.912Z,97406.00
2023-01-19T03:32:47.202Z,97404.00
2023-01-19T03:35:16.573Z,97412.00
2023-01-19T03:37:46.448Z,97411.00
2023-01-19T03:40:13.164Z,97409.00
2023-01-19T03:42:41.075Z,97410.00
2023-01-19T03:45:09.039Z,97407.00
2023-01-19T03:47:36.284Z,97410.00
2023-01-19T03:50:06.070Z,97405.00
2023-01-19T03:52:33.591Z,97412.00
2023-01-19T03:55:01.384Z,97412.00
2023-01-19T03:57:27.910Z,97419.00
2023-01-19T03:59:54.436Z,97417.00
2023-01-19T04:02:20.923Z,97419.00
2023-01-19T04:04:47.772Z,97423.00
2023-01-19T04:07:14.331Z,97420.00
2023-01-19T04:09:41.062Z,97417.00
2023-01-19T04:12:07.721Z,97417.00
2023-01-19T04:14:34.224Z,97427.00
2023-01-19T04:17:00.683Z,97434.00
2023-01-19T04:19:27.226Z,97418.00
2023-01-19T04:21:53.773Z,97409.00
2023-01-19T04:24:20.251Z,97412.00
2023-01-19T04:26:46.737Z,97415.00
2023-01-19T04:29:14.303Z,97410.00
2023-01-19T04:31:41.128Z,97403.00
2023-01-19T04:34:07.622Z,97409.00
2023-01-19T04:36:34.127Z,97399.00
2023-01-19T04:39:00.621Z,97402.00
2023-01-19T04:41:27.144Z,97403.00
2023-01-19T04:43:53.677Z,97399.00
2023-01-19T04:46:20.242Z,97394.00
2023-01-19T04:48:46.750Z,97395.00
2023-01-19T04:51:13.226Z,97395.00
2023-01-19T04:53:39.832Z,97414.00
2023-01-19T04:56:06.559Z,97407.00
2023-01-19T04:58:33.115Z,97417.00
2023-01-19T05:01:32.302Z,97416.00
2023-01-19T05:03:59.663Z,97405.00
2023-01-19T05:06:26.308Z,97419.00
2023-01-19T05:08:52.949Z,97417.00
2023-01-19T05:11:19.430Z,97429.00
2023-01-19T05:13:45.913Z,97428.00
2023-01-19T05:16:13.980Z,97431.00
2023-01-19T05:18:40.510Z,97439.00
2023-01-19T05:21:07.492Z,97426.00
2023-01-19T05:23:34.358Z,97424.00
2023-01-19T05:26:03.512Z,97428.00
2023-01-19T05:28:31.635Z,97429.00
2023-01-19T05:30:58.444Z,97432.00
2023-01-19T05:33:25.496Z,97437.00
2023-01-19T05:35:53.531Z,97434.00
2023-01-19T05:38:29.480Z,97424.00
2023-01-19T05:41:00.930Z,97430.00
2023-01-19T05:43:27.372Z,97423.00
2023-01-19T05:45:53.843Z,97430.00
2023-01-19T05:48:20.405Z,97427.00
2023-01-19T05:50:49.386Z,97419.00
2023-01-19T05:53:17.004Z,97429.00
2023-01-19T05:55:43.623Z,97428.00
2023-01-19T05:58:10.168Z,97448.00
2023-01-19T06:00:36.865Z,97452.00
2023-01-19T06:03:04.003Z,97449.00
2023-01-19T06:05:30.854Z,97444.00
2023-01-19T06:07:57.416Z,97451.00
2023-01-19T06:10:24.036Z,97445.00
2023-01-19T06:12:52.467Z,97457.00
2023-01-19T06:15:19.295Z,97447.00
2023-01-19T06:17:45.911Z,97454.00
2023-01-19T06:20:14.038Z,97461.00
2023-01-19T06:22:40.613Z,97457.00
2023-01-19T06:25:07.395Z,97463.00
2023-01-19T06:27:33.902Z,97460.00
2023-01-19T06:30:00.371Z,97461.00
2023-01-19T06:32:26.883Z,97461.00
2023-01-19T06:34:54.196Z,97459.00
2023-01-19T06:37:20.967Z,97462.00
2023-01-19T06:39:47.507Z,97460.00
2023-01-19T06:42:14.350Z,97468.00
2023-01-19T06:44:47.189Z,97463.00
2023-01-19T06:47:16.339Z,97470.00
2023-01-19T06:49:43.597Z,97474.00
2023-01-19T06:52:18.349Z,97481.00
2023-01-19T06:54:45.467Z,97482.00
2023-01-19T06:57:13.251Z,97493.00
2023-01-19T06:59:39.915Z,97493.00
2023-01-19T07:02:26.461Z,97509.00
2023-01-19T07:04:53.158Z,97514.00
2023-01-19T07:07:19.649Z,97499.00
2023-01-19T07:09:46.083Z,97513.00
2023-01-19T07:12:14.547Z,97518.00
2023-01-19T07:14:41.077Z,97519.00
2023-01-19T07:17:07.803Z,97516.00
2023-01-19T07:19:35.329Z,97530.00
2023-01-19T07:22:03.138Z,97522.00
2023-01-19T07:24:34.165Z,97529.00
2023-01-19T07:27:00.847Z,97531.00
2023-01-19T07:29:27.293Z,97525.00
2023-01-19T07:31:56.793Z,97527.00
2023-01-19T07:34:23.397Z,97524.00
2023-01-19T07:36:49.899Z,97537.00
2023-01-19T07:39:16.422Z,97535.00
2023-01-19T07:41:42.877Z,97523.00
2023-01-19T07:44:09.626Z,97534.00
2023-01-19T07:46:36.198Z,97539.00
2023-01-19T07:49:02.692Z,97538.00
2023-01-19T07:51:29.214Z,97547.00
2023-01-19T07:53:55.705Z,97535.00
2023-01-19T07:56:23.413Z,97537.00
2023-01-19T07:58:52.264Z,97548.00
2023-01-19T08:01:18.899Z,97558.00
2023-01-19T08:03:48.051Z,97552.00
2023-01-19T08:06:28.391Z,97565.00
2023-01-19T08:08:54.984Z,97558.00
2023-01-19T08:11:21.451Z,97574.00
2023-01-19T08:13:47.981Z,97575.00
2023-01-19T08:16:14.482Z,97569.00
2023-01-19T08:18:41.040Z,97576.00
2023-01-19T08:21:07.891Z,97569.00
2023-01-19T08:23:34.454Z,97571.00
2023-01-19T08:26:01.439Z,97571.00
2023-01-19T08:28:27.940Z,97567.00
2023-01-19T08:30:54.594Z,97573.00
2023-01-19T08:33:23.202Z,97575.00
2023-01-19T08:35:54.210Z,97569.00
2023-01-19T08:38:20.748Z,97563.00
2023-01-19T08:40:48.645Z,97569.00
2023-01-19T08:43:17.160Z,97566.00
2023-01-19T08:45:48.142Z,97566.00
2023-01-19T08:48:16.446Z,97559.00
2023-01-19T08:50:46.528Z,97573.00
2023-01-19T08:53:13.598Z,97556.00
2023-01-19T08:55:40.621Z,97564.00
2023-01-19T08:58:08.810Z,97565.00
2023-01-19T09:00:40.182Z,97563.00
2023-01-19T09:03:09.227Z,97568.00
2023-01-19T09:05:38.638Z,97557.00
2023-01-19T09:08:08.378Z,97563.00
2023-01-19T09:10:36.218Z,97560.00
2023-01-19T09:13:08.115Z,97560.00
2023-01-19T09:15:37.527Z,97563.00
2023-01-19T09:18:07.044Z,97558.00
2023-01-19T09:20:36.017Z,97567.00
2023-01-19T09:23:02.512Z,97567.00
2023-01-19T09:25:28.963Z,97567.00
2023-01-19T09:27:56.182Z,97566.00
2023-01-19T09:30:22.766Z,97575.00
2023-01-19T09:32:49.202Z,97576.00
2023-01-19T09:35:15.912Z,97574.00
2023-01-19T09:37:46.317Z,97577.00
2023-01-19T09:40:13.921Z,97584.00
2023-01-19T09:42:48.167Z,97583.00
2023-01-19T09:45:34.303Z,97580.00
2023-01-19T09:48:02.489Z,97580.00
2023-01-19T09:50:36.477Z,97580.00
2023-01-19T09:53:13.773Z,97570.00
2023-01-19T09:55:42.566Z,97593.00
2023-01-19T09:58:18.977Z,97584.00
2023-01-19T10:00:56.100Z,97588.00
2023-01-19T10:03:24.000Z,97591.00
2023-01-19T10:06:01.368Z,97598.00
2023-01-19T10:08:44.241Z,97605.00
2023-01-19T10:11:51.271Z,97607.00
2023-01-19T10:14:49.186Z,97606.00
2023-01-19T10:17:41.966Z,97608.00
2023-01-19T10:20:17.945Z,97607.00
2023-01-19T10:22:48.654Z,97606.00
2023-01-19T10:25:19.837Z,97612.00
2023-01-19T10:27:46.736Z,97606.00
2023-01-19T10:30:23.799Z,97607.00
2023-01-19T10:32:51.322Z,97613.00
2023-01-19T10:35:24.558Z,97609.00
2023-01-19T10:37:54.594Z,97601.00
2023-01-19T10:40:36.317Z,97610.00
2023-01-19T10:43:32.324Z,97606.00
2023-01-19T10:45:58.934Z,97609.00
2023-01-19T10:48:25.599Z,97609.00
2023-01-19T10:51:03.280Z,97609.00
2023-01-19T10:53:29.881Z,97610.00
2023-01-19T10:56:14.434Z,97603.00
2023-01-19T10:58:40.954Z,97606.00
2023-01-19T11:01:17.652Z,97598.00
2023-01-19T11:03:45.126Z,97604.00
2023-01-19T11:06:15.401Z,97597.00
2023-01-19T11:08:44.285Z,97600.00
2023-01-19T11:11:12.446Z,97597.00
2023-01-19T11:13:43.042Z,97593.00
2023-01-19T11:16:24.692Z,97594.00
2023-01-19T11:18:56.477Z,97596.00
2023-01-19T11:21:26.623Z,97603.00
2023-01-19T11:23:56.564Z,97599.00
2023-01-19T11:26:43.424Z,97607.00
2023-01-19T11:29:25.949Z,97604.00
2023-01-19T11:31:54.302Z,97591.00
2023-01-19T11:34:32.986Z,97594.00
2023-01-19T11:37:03.773Z,97593.00
2023-01-19T11:39:44.822Z,97590.00
2023-01-19T11:42:13.030Z,97587.00
2023-01-19T11:44:46.725Z,97592.00
2023-01-19T11:47:28.285Z,97589.00
2023-01-19T11:50:01.391Z,97585.00
2023-01-19T11:52:42.986Z,97576.00
2023-01-19T11:55:30.846Z,97580.00
2023-01-19T11:57:59.751Z,97575.00
2023-01-19T12:00:42.795Z,97575.00
2023-01-19T12:03:32.642Z,97572.00
2023-01-19T12:06:04.259Z,97572.00
2023-01-19T12:08:36.443Z,97572.00
2023-01-19T12:11:05.281Z,97558.00
2023-01-19T12:13:33.447Z,97568.00
2023-01-19T12:16:07.177Z,97573.00
2023-01-19T12:18:39.604Z,97569.00
2023-01-19T12:21:06.381Z,97572.00
2023-01-19T12:23:39.656Z,97571.00
2023-01-19T12:26:24.194Z,97571.00
2023-01-19T12:28:52.513Z,97561.00
2023-01-19T12:31:21.994Z,97569.00
2023-01-19T12:33:49.241Z,97580.00
2023-01-19T12:36:32.144Z,97564.00
2023-01-19T12:39:04.750Z,97558.00
2023-01-19T12:41:32.895Z,97560.00
2023-01-19T12:44:11.349Z,97568.00
2023-01-19T12:46:41.047Z,97567.00
2023-01-19T12:49:17.941Z,97571.00
2023-01-19T12:51:45.944Z,97567.00
2023-01-19T12:54:41.850Z,97570.00
2023-01-19T12:57:19.140Z,97566.00
2023-01-19T12:59:45.779Z,97560.00
2023-01-19T13:02:18.481Z,97552.00
2023-01-19T13:05:06.710Z,97559.00
2023-01-19T13:08:08.290Z,97563.00
2023-01-19T13:11:02.821Z,97566.00
2023-01-19T13:13:53.553Z,97558.00
2023-01-19T13:16:20.225Z,97563.00
2023-01-19T13:18:53.924Z,97570.00
2023-01-19T13:21:35.349Z,97566.00
2023-01-19T13:24:15.901Z,97561.00
2023-01-19T13:26:54.896Z,97557.00
2023-01-19T13:29:47.525Z,97566.00
2023-01-19T13:32:17.580Z,97563.00
2023-01-19T13:34:49.666Z,97566.00
2023-01-19T13:37:19.947Z,97564.00
2023-01-19T13:39:50.101Z,97564.00
2023-01-19T13:42:29.306Z,97560.00
2023-01-19T13:44:59.936Z,97568.00
2023-01-19T13:47:50.780Z,97570.00
2023-01-19T13:50:23.700Z,97567.00
2023-01-19T13:52:51.789Z,97569.00
2023-01-19T13:55:20.402Z,97569.00
2023-01-19T13:57:49.574Z,97571.00
2023-01-19T14:00:18.018Z,97576.00
2023-01-19T14:03:17.898Z,97577.00
2023-01-19T14:05:45.172Z,97583.00
2023-01-19T14:08:14.943Z,97589.00
2023-01-19T14:10:45.980Z,97578.00
2023-01-19T14:13:25.169Z,97589.00
2023-01-19T14:15:56.971Z,97587.00
2023-01-19T14:18:30.095Z,97590.00
2023-01-19T14:21:01.246Z,97589.00
2023-01-19T14:23:47.769Z,97593.00
2023-01-19T14:26:41.635Z,97595.00
2023-01-19T14:29:32.717Z,97592.00
2023-01-19T14:32:27.790Z,97592.00
2023-01-19T14:35:04.115Z,97593.00
2023-01-19T14:37:36.018Z,97588.00
2023-01-19T14:40:10.695Z,97592.00
2023-01-19T14:42:44.193Z,97599.00
2023-01-19T14:45:26.692Z,97593.00
2023-01-19T14:48:06.513Z,97606.00
2023-01-19T14:50:37.602Z,97597.00
2023-01-19T14:53:07.306Z,97604.00
2023-01-19T14:55:38.411Z,97610.00
2023-01-19T14:58:17.557Z,97611.00
2023-01-19T15:00:45.460Z,97611.00
2023-01-19T15:03:12.113Z,97621.00
2023-01-19T15:05:41.224Z,97612.00
2023-01-19T15:08:10.991Z,97614.00
2023-01-19T15:10:37.550Z,97619.00
2023-01-19T15:13:04.854Z,97621.00
2023-01-19T15:15:33.667Z,97614.00
2023-01-19T15:18:02.724Z,97624.00
2023-01-19T15:20:29.410Z,97623.00
2023-01-19T15:22:55.909Z,97626.00
2023-01-19T15:25:27.394Z,97627.00
2023-01-19T15:27:58.159Z,97632.00
2023-01-19T15:30:31.135Z,97628.00
2023-01-19T15:32:58.900Z,97617.00
2023-01-19T15:35:26.446Z,97622.00
2023-01-19T15:37:53.825Z,97625.00
2023-01-19T15:40:22.638Z,97623.00
2023-01-19T15:42:50.075Z,97630.00
2023-01-19T15:45:41.514Z,97628.00
2023-01-19T15:48:11.015Z,97625.00
2023-01-19T15:50:40.988Z,97637.00
2023-01-19T15:53:11.764Z,97634.00
2023-01-19T15:55:38.244Z,97633.00
2023-01-19T15:58:04.733Z,97634.00
2023-01-19T16:00:33.199Z,97631.00
2023-01-19T16:03:01.850Z,97625.00
2023-01-19T16:05:41.799Z,97627.00
2023-01-19T16:08:10.210Z,97633.00
2023-01-19T16:10:36.731Z,97633.00
2023-01-19T16:13:04.071Z,97636.00
2023-01-19T16:15:30.590Z,97630.00
2023-01-19T16:17:57.157Z,97632.00
2023-01-19T16:20:23.741Z,97638.00
2023-01-19T16:22:50.226Z,97635.00
2023-01-19T16:25:16.743Z,97642.00
2023-01-19T16:27:43.205Z,97635.00
2023-01-19T16:30:11.919Z,97640.00
2023-01-19T16:32:38.756Z,97632.00
2023-01-19T16:35:05.693Z,97641.00
2023-01-19T16:37:32.293Z,97647.00
2023-01-19T16:39:58.806Z,97642.00
2023-01-19T16:42:25.437Z,97635.00
2023-01-19T16:44:51.956Z,97646.00
2023-01-19T16:47:18.495Z,97649.00
2023-01-19T16:49:44.956Z,97640.00
2023-01-19T16:52:11.866Z,97643.00
2023-01-19T16:54:42.037Z,97646.00
2023-01-19T16:57:10.007Z,97649.00
2023-01-19T16:59:37.159Z,97645.00
2023-01-19T17:02:03.781Z,97652.00
2023-01-19T17:04:30.535Z,97651.00
2023-01-19T17:06:57.117Z,97652.00
2023-01-19T17:09:23.591Z,97661.00
2023-01-19T17:11:50.191Z,97661.00
2023-01-19T17:14:21.732Z,97659.00
2023-01-19T17:16:48.925Z,97662.00
2023-01-19T17:19:20.066Z,97655.00
2023-01-19T17:21:48.813Z,97659.00
2023-01-19T17:24:16.206Z,97655.00
2023-01-19T17:26:45.749Z,97657.00
2023-01-19T17:29:12.335Z,97651.00
2023-01-19T17:31:38.948Z,97664.00
2023-01-19T17:34:05.661Z,97656.00
2023-01-19T17:36:32.911Z,97660.00
2023-01-19T17:39:03.947Z,97666.00
2023-01-19T17:41:34.967Z,97664.00
2023-01-19T17:44:03.392Z,97662.00
2023-01-19T17:46:30.304Z,97670.00
2023-01-19T17:48:59.994Z,97666.00
2023-01-19T17:51:27.504Z,97671.00
2023-01-19T17:53:54.519Z,97672.00
2023-01-19T17:56:26.164Z,97662.00
2023-01-19T17:58:52.852Z,97666.00
2023-01-19T18:01:32.020Z,97673.00
2023-01-19T18:03:59.646Z,97668.00
2023-01-19T18:06:26.290Z,97684.00
2023-01-19T18:08:52.968Z,97675.00
2023-01-19T18:11:21.068Z,97681.00
2023-01-19T18:13:49.157Z,97680.00
2023-01-19T18:16:19.134Z,97677.00
2023-01-19T18:18:45.682Z,97682.00
2023-01-19T18:21:14.197Z,97677.00
2023-01-19T18:23:43.246Z,97685.00
2023-01-19T18:26:16.002Z,97685.00
2023-01-19T18:28:42.470Z,97688.00
2023-01-19T18:31:14.716Z,97685.00
2023-01-19T18:33:42.064Z,97686.00
2023-01-19T18:36:26.416Z,97680.00
2023-01-19T18:38:53.603Z,97691.00
2023-01-19T18:41:21.431Z,97689.00
2023-01-19T18:43:48.696Z,97687.00
2023-01-19T18:46:16.257Z,97691.00
2023-01-19T18:48:42.901Z,97695.00
2023-01-19T18:51:11.914Z,97688.00
2023-01-19T18:53:38.700Z,97691.00
2023-01-19T18:56:06.543Z,97691.00
2023-01-19T18:58:33.915Z,97692.00
2023-01-19T19:01:01.143Z,97697.00
2023-01-19T19:03:28.310Z,97694.00
2023-01-19T19:05:55.841Z,97702.00
2023-01-19T19:08:22.838Z,97696.00
2023-01-19T19:10:49.360Z,97695.00
2023-01-19T19:13:17.247Z,97702.00
2023-01-19T19:15:46.622Z,97697.00
2023-01-19T19:18:13.946Z,97703.00
2023-01-19T19:20:44.396Z,97702.00
2023-01-19T19:23:11.785Z,97694.00
2023-01-19T19:25:38.700Z,97700.00
2023-01-19T19:28:05.394Z,97698.00
2023-01-19T19:30:34.377Z,97716.00
2023-01-19T19:33:01.068Z,97706.00
2023-01-19T19:35:27.752Z,97707.00
2023-01-19T19:37:57.379Z,97708.00
2023-01-19T19:40:26.207Z,97705.00
2023-01-19T19:42:53.391Z,97710.00
2023-01-19T19:45:20.273Z,97717.00
2023-01-19T19:47:46.796Z,97719.00
2023-01-19T19:50:14.231Z,97713.00
2023-01-19T19:52:41.685Z,97710.00
2023-01-19T19:55:09.852Z,97710.00
2023-01-19T19:57:36.819Z,97712.00
2023-01-19T20:00:05.159Z,97716.00
2023-01-19T20:02:36.585Z,97712.00
2023-01-19T20:05:03.690Z,97717.00
2023-01-19T20:07:30.317Z,97709.00
2023-01-19T20:09:59.439Z,97720.00
2023-01-19T20:12:26.162Z,97717.00
2023-01-19T20:14:52.728Z,97719.00
2023-01-19T20:17:20.680Z,97715.00
2023-01-19T20:19:48.928Z,97712.00
2023-01-19T20:22:15.969Z,97718.00
2023-01-19T20:24:42.540Z,97717.00
2023-01-19T20:27:09.105Z,97711.00
2023-01-19T20:29:35.639Z,97712.00
2023-01-19T20:32:02.209Z,97717.00
2023-01-19T20:34:33.180Z,97716.00
2023-01-19T20:37:01.560Z,97720.00
2023-01-19T20:39:30.035Z,97724.00
2023-01-19T20:41:56.754Z,97725.00
2023-01-19T20:44:25.177Z,97724.00
2023-01-19T20:46:52.964Z,97734.00
2023-01-19T20:49:20.101Z,97726.00
2023-01-19T20:51:47.035Z,97733.00
2023-01-19T20:54:15.732Z,97734.00
2023-01-19T20:56:42.544Z,97735.00
2023-01-19T20:59:10.251Z,97744.00
2023-01-19T21:01:37.453Z,97748.00
2023-01-19T21:04:04.260Z,97746.00
2023-01-19T21:06:31.380Z,97752.00
2023-01-19T21:08:58.046Z,97753.00
2023-01-19T21:11:24.880Z,97755.00
2023-01-19T21:13:55.593Z,97761.00
2023-01-19T21:16:24.045Z,97772.00
2023-01-19T21:18:50.640Z,97765.00
2023-01-19T21:21:29.319Z,97775.00
2023-01-19T21:23:57.559Z,97782.00
2023-01-19T21:26:24.202Z,97777.00
2023-01-19T21:28:50.816Z,97782.00
2023-01-19T21:31:17.487Z,97783.00
2023-01-19T21:33:44.080Z,97781.00
2023-01-19T21:36:11.095Z,97783.00
2023-01-19T21:38:38.853Z,97776.00
2023-01-19T21:41:12.486Z,97783.00
2023-01-19T21:43:41.640Z,97785.00
2023-01-19T21:46:16.978Z,97786.00
2023-01-19T21:48:43.853Z,97793.00
2023-01-19T21:51:10.442Z,97790.00
2023-01-19T21:53:37.214Z,97800.00
2023-01-19T21:56:09.508Z,97797.00
2023-01-19T21:58:36.132Z,97793.00
2023-01-19T22:01:06.821Z,97793.00
2023-01-19T22:03:33.411Z,97804.00
2023-01-19T22:06:08.311Z,97808.00
2023-01-19T22:08:35.216Z,97806.00
2023-01-19T22:11:05.125Z,97800.00
2023-01-19T22:13:32.540Z,97808.00
2023-01-19T22:16:00.972Z,97818.00
2023-01-19T22:18:27.557Z,97818.00
2023-01-19T22:20:54.226Z,97825.00
2023-01-19T22:23:20.734Z,97821.00
2023-01-19T22:25:47.215Z,97818.00
2023-01-19T22:28:13.700Z,97822.00
2023-01-19T22:30:40.267Z,97818.00
2023-01-19T22:33:06.788Z,97825.00
2023-01-19T22:35:33.259Z,97832.00
2023-01-19T22:37:59.696Z,97826.00
2023-01-19T22:40:26.178Z,97835.00
2023-01-19T22:42:52.622Z,97823.00
2023-01-19T22:45:19.165Z,97827.00
2023-01-19T22:47:46.247Z,97826.00
2023-01-19T22:50:12.709Z,97830.00
2023-01-19T22:52:39.195Z,97832.00
2023-01-19T22:55:06.039Z,97834.00
2023-01-19T22:57:35.677Z,97838.00
2023-01-19T23:00:06.750Z,97832.00
2023-01-19T23:02:33.246Z,97831.00
2023-01-19T23:04:59.806Z,97820.00
2023-01-19T23:07:26.279Z,97823.00
2023-01-19T23:09:52.737Z,97832.00
2023-01-19T23:12:19.180Z,97830.00
2023-01-19T23:14:45.649Z,97839.00
2023-01-19T23:17:12.104Z,97842.00
2023-01-19T23:19:38.546Z,97844.00
2023-01-19T23:22:05.118Z,97834.00
2023-01-19T23:24:31.564Z,97836.00
2023-01-19T23:26:58.019Z,97849.00
2023-01-19T23:29:24.528Z,97845.00
2023-01-19T23:31:53.312Z,97840.00
2023-01-19T23:34:19.757Z,97840.00
2023-01-19T23:36:46.271Z,97850.00
2023-01-19T23:39:16.013Z,97843.00
2023-01-19T23:41:42.545Z,97849.00
2023-01-19T23:44:09.400Z,97853.00
2023-01-19T23:46:35.971Z,97848.00
2023-01-19T23:49:02.537Z,97853.00
2023-01-19T23:51:31.425Z,97854.00
2023-01-19T23:53:59.468Z,97854.00
2023-01-19T23:56:29.627Z,97848.00
2023-01-19T23:59:01.582Z,97863.00
